createdAt,value
2019-03-20T00:00:11.183Z,102620.05
2019-03-20T00:02:42.412Z,102624.98
2019-03-20T00:05:14.201Z,102620.66
2019-03-20T00:07:45.409Z,102629.25
2019-03-20T00:10:17.036Z,102623.73
2019-03-20T00:12:48.550Z,102630.84
2019-03-20T00:15:19.840Z,102632.86
2019-03-20T00:17:51.006Z,102632.98
2019-03-20T00:20:22.187Z,102639.17
2019-03-20T00:22:53.559Z,102639.67
2019-03-20T00:25:24.781Z,102644.41
2019-03-20T00:27:59.042Z,102639.81
2019-03-20T00:30:30.248Z,102639.00
2019-03-20T00:33:01.437Z,102640.41
2019-03-20T00:35:32.707Z,102644.19
2019-03-20T00:38:03.994Z,102639.87
2019-03-20T00:40:35.120Z,102643.94
2019-03-20T00:43:26.749Z,102643.53
2019-03-20T00:45:58.078Z,102649.02
2019-03-20T00:48:30.610Z,102639.66
2019-03-20T00:51:02.058Z,102639.66
2019-03-20T00:53:35.394Z,102637.47
2019-03-20T00:56:06.642Z,102635.06
2019-03-20T00:58:39.685Z,102638.11
2019-03-20T01:01:10.742Z,102640.26
2019-03-20T01:03:41.846Z,102631.62
2019-03-20T01:06:13.068Z,102630.57
2019-03-20T01:08:44.122Z,102638.14
2019-03-20T01:11:16.441Z,102633.23
2019-03-20T01:13:48.068Z,102636.98
2019-03-20T01:16:19.190Z,102634.95
2019-03-20T01:18:50.245Z,102630.45
2019-03-20T01:21:21.489Z,102623.84
2019-03-20T01:23:52.523Z,102630.29
2019-03-20T01:26:23.732Z,102626.52
2019-03-20T01:28:54.848Z,102636.04
2019-03-20T01:31:26.005Z,102639.14
2019-03-20T01:33:57.525Z,102641.05
2019-03-20T01:36:28.645Z,102643.50
2019-03-20T01:39:00.852Z,102639.61
2019-03-20T01:41:38.046Z,102640.20
2019-03-20T01:44:04.905Z,102636.23
2019-03-20T01:46:36.128Z,102635.02
2019-03-20T01:49:07.251Z,102647.59
2019-03-20T01:51:38.531Z,102647.59
2019-03-20T01:54:09.662Z,102643.37
2019-03-20T01:56:40.890Z,102644.25
2019-03-20T01:59:12.435Z,102635.16
2019-03-20T02:01:43.859Z,102634.83
2019-03-20T02:04:15.059Z,102645.62
2019-03-20T02:06:46.431Z,102649.80
2019-03-20T02:09:17.550Z,102646.06
2019-03-20T02:11:48.884Z,102645.32
2019-03-20T02:14:20.111Z,102643.48
2019-03-20T02:16:51.686Z,102644.34
2019-03-20T02:19:22.820Z,102641.34
2019-03-20T02:21:53.998Z,102644.07
2019-03-20T02:24:25.264Z,102645.38
2019-03-20T02:26:56.467Z,102644.07
2019-03-20T02:29:27.603Z,102643.68
2019-03-20T02:31:58.766Z,102639.74
2019-03-20T02:34:29.980Z,102639.80
2019-03-20T02:37:01.201Z,102645.18
2019-03-20T02:39:32.428Z,102646.20
2019-03-20T02:42:03.669Z,102638.72
2019-03-20T02:44:34.907Z,102638.48
2019-03-20T02:47:06.325Z,102640.84
2019-03-20T02:49:37.542Z,102639.69
2019-03-20T02:52:08.794Z,102639.53
2019-03-20T02:54:39.999Z,102627.34
2019-03-20T02:57:11.169Z,102631.55
2019-03-20T02:59:42.450Z,102636.95
2019-03-20T03:02:13.647Z,102641.00
2019-03-20T03:04:44.929Z,102639.41
2019-03-20T03:07:16.202Z,102634.92
2019-03-20T03:09:47.447Z,102641.52
2019-03-20T03:12:18.723Z,102642.24
2019-03-20T03:14:52.736Z,102642.15
2019-03-20T03:17:24.052Z,102643.09
2019-03-20T03:19:57.685Z,102636.50
2019-03-20T03:22:28.973Z,102643.39
2019-03-20T03:25:00.098Z,102646.36
2019-03-20T03:27:31.352Z,102648.45
2019-03-20T03:30:02.574Z,102652.62
2019-03-20T03:32:33.840Z,102652.59
2019-03-20T03:35:05.329Z,102654.11
2019-03-20T03:37:36.555Z,102651.38
2019-03-20T03:40:09.316Z,102656.96
2019-03-20T03:42:40.570Z,102653.20
2019-03-20T03:45:13.010Z,102654.52
2019-03-20T03:47:44.232Z,102653.41
2019-03-20T03:50:15.840Z,102648.72
2019-03-20T03:52:49.867Z,102647.84
2019-03-20T03:55:21.081Z,102652.30
2019-03-20T03:57:52.443Z,102651.47
2019-03-20T04:00:23.714Z,102654.89
2019-03-20T04:02:54.775Z,102654.81
2019-03-20T04:05:26.035Z,102658.55
2019-03-20T04:07:57.269Z,102655.14
2019-03-20T04:10:28.463Z,102657.50
2019-03-20T04:12:59.648Z,102659.16
2019-03-20T04:15:30.811Z,102660.20
2019-03-20T04:18:02.071Z,102656.63
2019-03-20T04:20:33.255Z,102656.39
2019-03-20T04:23:04.514Z,102647.44
2019-03-20T04:25:35.672Z,102649.20
2019-03-20T04:28:06.903Z,102645.72
2019-03-20T04:30:38.143Z,102648.11
2019-03-20T04:33:09.364Z,102644.23
2019-03-20T04:35:40.599Z,102648.48
2019-03-20T04:38:11.865Z,102650.54
2019-03-20T04:40:43.122Z,102655.12
2019-03-20T04:43:14.347Z,102654.87
2019-03-20T04:45:45.491Z,102652.25
2019-03-20T04:48:16.712Z,102652.72
2019-03-20T04:50:47.861Z,102652.34
2019-03-20T04:53:19.082Z,102650.24
2019-03-20T04:55:50.315Z,102655.30
2019-03-20T04:58:21.539Z,102652.24
2019-03-20T05:00:52.773Z,102651.88
2019-03-20T05:03:23.826Z,102652.80
2019-03-20T05:05:55.127Z,102644.30
2019-03-20T05:08:26.366Z,102644.49
2019-03-20T05:10:57.633Z,102652.47
2019-03-20T05:13:28.846Z,102655.08
2019-03-20T05:16:00.119Z,102662.98
2019-03-20T05:18:31.326Z,102649.36
2019-03-20T05:21:02.639Z,102663.78
2019-03-20T05:23:33.760Z,102662.05
2019-03-20T05:26:05.050Z,102665.60
2019-03-20T05:28:36.248Z,102669.04
2019-03-20T05:31:07.428Z,102663.69
2019-03-20T05:33:38.623Z,102665.51
2019-03-20T05:36:09.882Z,102669.78
2019-03-20T05:38:41.006Z,102674.20
2019-03-20T05:41:12.344Z,102676.03
2019-03-20T05:43:43.583Z,102681.44
2019-03-20T05:46:14.880Z,102683.41
2019-03-20T05:48:46.022Z,102685.22
2019-03-20T05:51:17.297Z,102691.13
2019-03-20T05:53:48.528Z,102690.58
2019-03-20T05:56:19.710Z,102695.19
2019-03-20T05:58:51.746Z,102694.27
2019-03-20T06:01:23.096Z,102706.42
2019-03-20T06:03:54.298Z,102701.80
2019-03-20T06:06:25.473Z,102712.16
2019-03-20T06:08:56.694Z,102715.11
2019-03-20T06:11:27.959Z,102714.68
2019-03-20T06:13:59.393Z,102711.17
2019-03-20T06:16:30.663Z,102709.94
2019-03-20T06:19:01.898Z,102704.47
2019-03-20T06:21:33.217Z,102704.02
2019-03-20T06:24:04.321Z,102707.58
2019-03-20T06:26:35.684Z,102707.58
2019-03-20T06:29:16.102Z,102705.41
2019-03-20T06:31:47.411Z,102708.20
2019-03-20T06:34:18.624Z,102710.75
2019-03-20T06:36:49.880Z,102716.50
2019-03-20T06:39:21.020Z,102720.59
2019-03-20T06:41:52.330Z,102722.98
2019-03-20T06:44:23.520Z,102726.08
2019-03-20T06:46:54.781Z,102729.45
2019-03-20T06:49:26.024Z,102734.09
2019-03-20T06:51:57.260Z,102736.73
2019-03-20T06:54:28.482Z,102734.20
2019-03-20T06:56:59.663Z,102732.55
2019-03-20T07:00:34.639Z,102731.13
2019-03-20T07:03:08.813Z,102725.16
2019-03-20T07:06:38.738Z,102735.22
2019-03-20T07:10:03.065Z,102732.84
2019-03-20T07:12:34.302Z,102743.11
2019-03-20T07:15:05.690Z,102733.56
2019-03-20T07:17:36.979Z,102742.02
2019-03-20T07:20:09.042Z,102738.56
2019-03-20T07:22:40.343Z,102746.70
2019-03-20T07:25:11.567Z,102744.14
2019-03-20T07:27:42.853Z,102742.53
2019-03-20T07:30:14.622Z,102736.72
2019-03-20T07:32:45.842Z,102744.19
2019-03-20T07:35:17.098Z,102747.73
2019-03-20T07:37:55.991Z,102741.28
2019-03-20T07:40:21.739Z,102738.52
2019-03-20T07:42:52.938Z,102747.05
2019-03-20T07:45:24.352Z,102744.58
2019-03-20T07:47:55.543Z,102753.70
2019-03-20T07:50:26.729Z,102748.56
2019-03-20T07:52:58.032Z,102753.59
2019-03-20T07:55:29.284Z,102751.39
2019-03-20T07:58:00.505Z,102754.49
2019-03-20T08:00:34.864Z,102758.05
2019-03-20T08:03:06.210Z,102763.82
2019-03-20T08:05:37.473Z,102764.03
2019-03-20T08:08:08.694Z,102764.16
2019-03-20T08:10:41.089Z,102766.30
2019-03-20T08:13:12.470Z,102768.05
2019-03-20T08:15:43.736Z,102766.22
2019-03-20T08:18:14.929Z,102765.52
2019-03-20T08:20:46.196Z,102774.02
2019-03-20T08:23:17.368Z,102773.45
2019-03-20T08:25:48.622Z,102775.79
2019-03-20T08:28:19.879Z,102785.41
2019-03-20T08:30:51.155Z,102791.07
2019-03-20T08:33:22.313Z,102793.27
2019-03-20T08:35:53.597Z,102788.95
2019-03-20T08:38:24.922Z,102791.52
2019-03-20T08:40:56.217Z,102799.41
2019-03-20T08:43:27.417Z,102803.02
2019-03-20T08:45:58.676Z,102801.48
2019-03-20T08:48:29.954Z,102799.91
2019-03-20T08:51:01.235Z,102801.01
2019-03-20T08:53:32.409Z,102801.24
2019-03-20T08:56:03.717Z,102800.30
2019-03-20T08:58:34.838Z,102808.07
2019-03-20T09:01:05.940Z,102806.44
2019-03-20T09:03:37.278Z,102812.99
2019-03-20T09:06:08.557Z,102814.02
2019-03-20T09:08:39.781Z,102815.73
2019-03-20T09:11:11.136Z,102813.33
2019-03-20T09:13:42.300Z,102819.92
2019-03-20T09:16:13.568Z,102827.20
2019-03-20T09:18:44.834Z,102814.34
2019-03-20T09:21:16.125Z,102824.93
2019-03-20T09:23:47.346Z,102830.79
2019-03-20T09:26:18.520Z,102835.11
2019-03-20T09:28:49.784Z,102837.45
2019-03-20T09:31:21.072Z,102827.95
2019-03-20T09:33:52.308Z,102825.64
2019-03-20T09:36:23.628Z,102829.10
2019-03-20T09:38:54.887Z,102818.34
2019-03-20T09:41:26.242Z,102823.64
2019-03-20T09:43:57.451Z,102820.45
2019-03-20T09:46:28.721Z,102826.20
2019-03-20T09:48:59.858Z,102822.97
2019-03-20T09:51:31.097Z,102827.80
2019-03-20T09:54:02.341Z,102831.56
2019-03-20T09:56:33.596Z,102838.35
2019-03-20T09:59:04.795Z,102836.72
2019-03-20T10:01:36.123Z,102832.42
2019-03-20T10:04:07.441Z,102830.14
2019-03-20T10:06:38.706Z,102830.72
2019-03-20T10:09:10.930Z,102824.23
2019-03-20T10:11:42.146Z,102832.28
2019-03-20T10:14:13.375Z,102832.14
2019-03-20T10:16:44.643Z,102834.27
2019-03-20T10:19:15.744Z,102834.79
2019-03-20T10:21:47.092Z,102830.64
2019-03-20T10:24:18.397Z,102830.55
2019-03-20T10:26:49.644Z,102828.30
2019-03-20T10:29:20.942Z,102826.64
2019-03-20T10:31:52.135Z,102826.86
2019-03-20T10:34:23.401Z,102822.39
2019-03-20T10:36:54.617Z,102823.95
2019-03-20T10:39:25.900Z,102824.19
2019-03-20T10:41:57.051Z,102818.45
2019-03-20T10:44:28.325Z,102819.44
2019-03-20T10:46:59.562Z,102818.16
2019-03-20T10:49:42.009Z,102819.61
2019-03-20T10:52:13.260Z,102814.99
2019-03-20T10:54:44.604Z,102820.78
2019-03-20T10:57:15.824Z,102820.86
2019-03-20T10:59:47.191Z,102825.06
2019-03-20T11:02:19.295Z,102827.52
2019-03-20T11:04:52.686Z,102819.36
2019-03-20T11:07:24.026Z,102830.42
2019-03-20T11:09:55.846Z,102824.37
2019-03-20T11:12:27.128Z,102831.05
2019-03-20T11:14:58.412Z,102835.81
2019-03-20T11:17:29.778Z,102835.63
2019-03-20T11:20:01.022Z,102824.98
2019-03-20T11:22:35.126Z,102825.92
2019-03-20T11:25:06.924Z,102827.75
2019-03-20T11:27:45.556Z,102834.53
2019-03-20T11:30:26.515Z,102834.61
2019-03-20T11:32:58.180Z,102832.03
2019-03-20T11:35:29.429Z,102830.86
2019-03-20T11:38:00.772Z,102831.60
2019-03-20T11:40:32.212Z,102836.45
2019-03-20T11:43:03.505Z,102836.95
2019-03-20T11:45:34.816Z,102831.73
2019-03-20T11:48:06.191Z,102828.35
2019-03-20T11:50:40.318Z,102830.67
2019-03-20T11:53:11.576Z,102835.55
2019-03-20T11:55:42.899Z,102834.44
2019-03-20T11:58:15.070Z,102831.59
2019-03-20T12:00:46.418Z,102835.61
2019-03-20T12:03:17.680Z,102839.06
2019-03-20T12:05:48.970Z,102841.13
2019-03-20T12:08:20.225Z,102844.64
2019-03-20T12:10:51.524Z,102840.20
2019-03-20T12:13:22.806Z,102843.17
2019-03-20T12:15:54.119Z,102845.92
2019-03-20T12:18:25.358Z,102838.17
2019-03-20T12:20:56.733Z,102844.87
2019-03-20T12:23:27.916Z,102843.73
2019-03-20T12:25:59.134Z,102837.88
2019-03-20T12:28:30.500Z,102841.39
2019-03-20T12:31:01.639Z,102841.88
2019-03-20T12:33:32.846Z,102835.78
2019-03-20T12:36:04.170Z,102842.75
2019-03-20T12:38:35.454Z,102843.30
2019-03-20T12:41:06.709Z,102842.47
2019-03-20T12:43:38.020Z,102840.31
2019-03-20T12:46:09.289Z,102838.45
2019-03-20T12:48:40.553Z,102839.58
2019-03-20T12:51:11.793Z,102831.16
2019-03-20T12:53:43.057Z,102824.64
2019-03-20T12:56:14.366Z,102823.80
2019-03-20T12:58:45.658Z,102825.68
2019-03-20T13:01:16.953Z,102821.22
2019-03-20T13:03:48.207Z,102820.53
2019-03-20T13:06:19.363Z,102821.64
2019-03-20T13:08:50.596Z,102827.07
2019-03-20T13:11:22.019Z,102824.04
2019-03-20T13:13:53.249Z,102827.83
2019-03-20T13:16:24.494Z,102818.11
2019-03-20T13:18:55.727Z,102823.73
2019-03-20T13:21:27.031Z,102822.63
2019-03-20T13:23:58.254Z,102817.19
2019-03-20T13:26:29.543Z,102824.45
2019-03-20T13:29:00.719Z,102812.80
2019-03-20T13:31:31.993Z,102816.02
2019-03-20T13:34:03.235Z,102819.95
2019-03-20T13:36:34.506Z,102818.66
2019-03-20T13:39:07.923Z,102821.23
2019-03-20T13:41:39.210Z,102821.20
2019-03-20T13:44:10.507Z,102830.74
2019-03-20T13:46:41.821Z,102831.05
2019-03-20T13:49:12.970Z,102834.74
2019-03-20T13:51:44.173Z,102827.99
2019-03-20T13:54:15.421Z,102830.21
2019-03-20T13:56:46.609Z,102834.75
2019-03-20T13:59:17.854Z,102832.20
2019-03-20T14:01:49.102Z,102834.70
2019-03-20T14:04:20.355Z,102839.19
2019-03-20T14:06:51.645Z,102841.30
2019-03-20T14:09:22.900Z,102841.27
2019-03-20T14:11:54.085Z,102837.39
2019-03-20T14:14:25.225Z,102835.91
2019-03-20T14:17:15.440Z,102836.13
2019-03-20T14:19:46.730Z,102838.95
2019-03-20T14:22:17.972Z,102832.45
2019-03-20T14:24:49.287Z,102831.16
2019-03-20T14:27:20.447Z,102834.47
2019-03-20T14:29:51.734Z,102831.62
2019-03-20T14:32:23.197Z,102826.02
2019-03-20T14:34:54.473Z,102827.30
2019-03-20T14:37:25.736Z,102824.49
2019-03-20T14:39:56.974Z,102821.47
2019-03-20T14:42:28.253Z,102820.22
2019-03-20T14:44:59.474Z,102817.90
2019-03-20T14:47:30.681Z,102824.47
2019-03-20T14:50:01.905Z,102817.70
2019-03-20T14:52:33.240Z,102818.56
2019-03-20T14:55:04.623Z,102812.44
2019-03-20T14:57:35.997Z,102817.80
2019-03-20T15:00:09.855Z,102815.36
2019-03-20T15:02:41.213Z,102819.55
2019-03-20T15:05:12.766Z,102821.70
2019-03-20T15:07:44.067Z,102820.23
2019-03-20T15:10:17.883Z,102823.00
2019-03-20T15:12:49.310Z,102822.29
2019-03-20T15:15:41.025Z,102809.17
2019-03-20T15:18:18.833Z,102812.42
2019-03-20T15:20:50.238Z,102806.45
2019-03-20T15:23:21.600Z,102814.58
2019-03-20T15:25:53.294Z,102814.58
2019-03-20T15:28:24.574Z,102810.72
2019-03-20T15:30:55.950Z,102806.88
2019-03-20T15:33:27.240Z,102809.62
2019-03-20T15:35:59.553Z,102796.95
2019-03-20T15:38:30.845Z,102799.91
2019-03-20T15:41:02.364Z,102795.57
2019-03-20T15:43:34.363Z,102801.38
2019-03-20T15:46:06.374Z,102802.52
2019-03-20T15:48:37.659Z,102804.41
2019-03-20T15:51:10.088Z,102799.27
2019-03-20T15:53:42.677Z,102799.30
2019-03-20T15:56:13.910Z,102801.07
2019-03-20T15:58:46.065Z,102802.53
2019-03-20T16:01:17.244Z,102801.29
2019-03-20T16:03:48.493Z,102800.16
2019-03-20T16:06:19.794Z,102796.97
2019-03-20T16:08:50.995Z,102796.44
2019-03-20T16:11:22.181Z,102807.83
2019-03-20T16:13:53.431Z,102804.42
2019-03-20T16:16:24.664Z,102798.07
2019-03-20T16:18:55.891Z,102798.17
2019-03-20T16:21:27.051Z,102794.95
2019-03-20T16:23:58.230Z,102794.41
2019-03-20T16:26:29.473Z,102799.91
2019-03-20T16:29:00.801Z,102802.08
2019-03-20T16:31:32.041Z,102795.94
2019-03-20T16:34:03.288Z,102797.31
2019-03-20T16:36:34.514Z,102793.61
2019-03-20T16:39:08.400Z,102796.22
2019-03-20T16:41:39.624Z,102797.27
2019-03-20T16:44:10.861Z,102802.72
2019-03-20T16:46:42.116Z,102808.72
2019-03-20T16:49:13.331Z,102807.14
2019-03-20T16:51:44.619Z,102801.27
2019-03-20T16:54:15.843Z,102805.52
2019-03-20T16:56:47.058Z,102809.07
2019-03-20T16:59:18.205Z,102805.21
2019-03-20T17:01:49.530Z,102801.64
2019-03-20T17:04:20.675Z,102810.87
2019-03-20T17:06:51.977Z,102808.17
2019-03-20T17:09:23.206Z,102804.67
2019-03-20T17:12:14.274Z,102811.78
2019-03-20T17:17:34.430Z,102820.28
2019-03-20T17:20:06.498Z,102818.22
2019-03-20T17:22:41.920Z,102815.23
2019-03-20T17:25:11.474Z,102819.14
2019-03-20T17:27:42.806Z,102822.42
2019-03-20T17:30:18.412Z,102826.34
2019-03-20T17:32:49.604Z,102822.66
2019-03-20T17:35:20.965Z,102825.52
2019-03-20T17:37:52.247Z,102821.23
2019-03-20T17:40:23.708Z,102813.17
2019-03-20T17:42:54.908Z,102814.56
2019-03-20T17:45:26.712Z,102813.30
2019-03-20T17:47:58.118Z,102811.47
2019-03-20T17:50:30.478Z,102820.09
2019-03-20T17:53:02.059Z,102822.52
2019-03-20T17:55:33.494Z,102822.44
2019-03-20T17:58:04.882Z,102830.19
2019-03-20T18:00:41.835Z,102833.31
2019-03-20T18:03:13.174Z,102832.95
2019-03-20T18:05:44.457Z,102838.62
2019-03-20T18:08:15.769Z,102832.14
2019-03-20T18:10:47.202Z,102830.79
2019-03-20T18:13:18.477Z,102839.18
2019-03-20T18:15:49.759Z,102841.80
2019-03-20T18:18:21.009Z,102840.81
2019-03-20T18:20:52.428Z,102847.09
2019-03-20T18:23:23.749Z,102850.93
2019-03-20T18:25:54.995Z,102852.11
2019-03-20T18:28:26.292Z,102848.19
2019-03-20T18:30:57.644Z,102851.39
2019-03-20T18:33:28.992Z,102855.44
2019-03-20T18:36:00.254Z,102860.83
2019-03-20T18:38:31.636Z,102865.03
2019-03-20T18:41:02.916Z,102864.25
2019-03-20T18:43:34.332Z,102872.28
2019-03-20T18:46:05.592Z,102872.52
2019-03-20T18:48:36.845Z,102868.08
2019-03-20T18:51:08.128Z,102867.80
2019-03-20T18:53:39.355Z,102871.47
2019-03-20T18:56:10.714Z,102874.69
2019-03-20T18:58:41.964Z,102877.44
2019-03-20T19:01:13.148Z,102877.73
2019-03-20T19:03:46.510Z,102882.83
2019-03-20T19:06:23.176Z,102883.67
2019-03-20T19:08:54.508Z,102886.89
2019-03-20T19:11:25.775Z,102885.66
2019-03-20T19:13:56.914Z,102896.34
2019-03-20T19:16:28.196Z,102903.84
2019-03-20T19:18:59.431Z,102896.86
2019-03-20T19:21:30.714Z,102897.72
2019-03-20T19:24:01.972Z,102901.70
2019-03-20T19:26:33.278Z,102898.90
2019-03-20T19:29:07.244Z,102904.69
2019-03-20T19:31:38.523Z,102911.44
2019-03-20T19:34:09.848Z,102906.59
2019-03-20T19:36:41.140Z,102910.36
2019-03-20T19:39:12.397Z,102902.31
2019-03-20T19:41:43.616Z,102905.78
2019-03-20T19:44:14.896Z,102910.33
2019-03-20T19:46:46.115Z,102905.09
2019-03-20T19:49:17.470Z,102908.60
2019-03-20T19:51:48.816Z,102905.75
2019-03-20T19:54:20.073Z,102912.44
2019-03-20T19:56:51.216Z,102913.30
2019-03-20T19:59:22.522Z,102911.97
2019-03-20T20:01:53.749Z,102906.92
2019-03-20T20:04:25.191Z,102910.69
2019-03-20T20:06:56.455Z,102905.64
2019-03-20T20:09:27.662Z,102902.98
2019-03-20T20:11:58.922Z,102902.52
2019-03-20T20:14:30.385Z,102903.48
2019-03-20T20:17:01.713Z,102902.09
2019-03-20T20:19:33.141Z,102905.39
2019-03-20T20:22:04.498Z,102901.27
2019-03-20T20:24:35.691Z,102906.95
2019-03-20T20:27:06.991Z,102904.05
2019-03-20T20:29:38.264Z,102906.33
2019-03-20T20:32:09.746Z,102906.21
2019-03-20T20:34:43.435Z,102914.16
2019-03-20T20:37:16.124Z,102905.19
2019-03-20T20:39:48.024Z,102908.45
2019-03-20T20:42:21.172Z,102913.41
2019-03-20T20:44:52.638Z,102902.45
2019-03-20T20:47:24.088Z,102896.68
2019-03-20T20:49:55.274Z,102896.36
2019-03-20T20:52:26.531Z,102903.41
2019-03-20T20:54:57.773Z,102896.06
2019-03-20T20:57:29.024Z,102900.23
2019-03-20T21:00:03.189Z,102901.02
2019-03-20T21:02:34.619Z,102895.30
2019-03-20T21:05:06.256Z,102895.50
2019-03-20T21:07:40.628Z,102902.33
2019-03-20T21:10:15.167Z,102905.57
2019-03-20T21:12:55.537Z,102899.88
2019-03-20T21:15:56.847Z,102898.30
2019-03-20T21:19:39.366Z,102900.73
2019-03-20T21:23:04.852Z,102902.97
2019-03-20T21:25:37.097Z,102899.20
2019-03-20T21:29:08.241Z,102901.89
2019-03-20T21:31:59.184Z,102901.69
2019-03-20T21:36:06.114Z,102902.73
2019-03-20T21:38:38.135Z,102907.30
2019-03-20T21:42:03.358Z,102900.67
2019-03-20T21:45:44.932Z,102906.43
2019-03-20T21:48:17.038Z,102900.05
2019-03-20T21:51:12.602Z,102911.70
2019-03-20T21:54:40.159Z,102908.33
2019-03-20T21:58:07.250Z,102902.95
2019-03-20T22:01:40.042Z,102903.77
2019-03-20T22:04:12.066Z,102904.81
2019-03-20T22:07:15.089Z,102907.67
2019-03-20T22:10:56.500Z,102902.42
2019-03-20T22:14:06.060Z,102896.11
2019-03-20T22:18:00.120Z,102900.25
2019-03-20T22:20:54.577Z,102901.20
2019-03-20T22:24:10.578Z,102905.70
2019-03-20T22:27:24.324Z,102908.41
2019-03-20T22:29:56.405Z,102905.16
2019-03-20T22:33:34.739Z,102903.81
2019-03-20T22:36:15.616Z,102903.28
2019-03-20T22:39:40.536Z,102906.61
2019-03-20T22:42:37.434Z,102909.62
2019-03-20T22:46:11.492Z,102906.88
2019-03-20T22:49:44.969Z,102905.24
2019-03-20T22:52:51.443Z,102897.19
2019-03-20T22:55:51.904Z,102907.02
2019-03-20T22:58:46.197Z,102903.31
2019-03-20T23:01:53.925Z,102911.63
2019-03-20T23:04:34.701Z,102911.42
2019-03-20T23:07:06.907Z,102904.63
2019-03-20T23:09:38.980Z,102904.67
2019-03-20T23:12:14.679Z,102904.20
2019-03-20T23:14:46.593Z,102913.54
2019-03-20T23:17:18.664Z,102913.01
2019-03-20T23:19:51.848Z,102911.37
2019-03-20T23:22:23.813Z,102912.23
2019-03-20T23:25:08.145Z,102910.82
2019-03-20T23:27:40.150Z,102910.81
2019-03-20T23:30:17.659Z,102912.74
2019-03-20T23:32:49.606Z,102911.67
2019-03-20T23:35:22.380Z,102909.27
2019-03-20T23:37:54.391Z,102903.44
2019-03-20T23:40:26.551Z,102908.31
2019-03-20T23:42:59.487Z,102910.41
2019-03-20T23:45:36.256Z,102906.46
2019-03-20T23:48:18.040Z,102906.77
2019-03-20T23:50:51.871Z,102913.05
2019-03-20T23:53:23.886Z,102914.64
2019-03-20T23:55:55.880Z,102908.33
2019-03-20T23:58:28.018Z,102909.88
